CTO weather

La Cabaña Airport
Caloto, Cauca Department, Colombia

Public forecast

Using degrees Celsius for public forecast. Weather courtesy of forecast.io.

Closest aviation weather report (METAR) to La Cabaña Airport

Closest report is Alfonso Bonilla Aragon International Airport, 30.0 nm (55.6 km) N. Retrieved 2020/02/19 06:00 UTC (47 minutes ago):

SKCL 190600Z 00000KT 9999 SCT015 21/20 A2988 NOSIG

Closest aviation forecast (TAF) to La Cabaña Airport

Closest forecast is Alfonso Bonilla Aragon International Airport, 30.0 nm (55.6 km) N. Retrieved 2020/02/19 06:43 UTC (4 minutes ago):

TAF SKCL 190430Z 1906/2006 04005KT 9999 SCT025 BECMG 1920/1922 32014KT TX34/1919Z TN19/1910Z